createdAt,value
2019-04-11T00:02:33.028Z,25.43
2019-04-11T00:05:04.764Z,23.12
2019-04-11T00:07:36.359Z,20.27
2019-04-11T00:10:08.297Z,29.60
2019-04-11T00:12:40.913Z,32.45
2019-04-11T00:15:12.734Z,39.98
2019-04-11T00:17:43.883Z,36.40
2019-04-11T00:20:15.889Z,23.35
2019-04-11T00:22:47.831Z,29.02
2019-04-11T00:25:19.750Z,28.87
2019-04-11T00:27:51.003Z,46.37
2019-04-11T00:30:22.054Z,25.62
2019-04-11T00:32:53.820Z,21.23
2019-04-11T00:35:25.796Z,22.73
2019-04-11T00:37:57.284Z,21.95
2019-04-11T00:40:29.056Z,19.98
2019-04-11T00:43:00.983Z,20.92
2019-04-11T00:45:31.909Z,20.95
2019-04-11T00:48:03.866Z,21.73
2019-04-11T00:50:35.024Z,21.93
2019-04-11T00:53:05.977Z,22.30
2019-04-11T00:55:37.601Z,21.55
2019-04-11T00:58:09.552Z,21.80
2019-04-11T01:00:40.959Z,22.00
2019-04-11T01:03:11.899Z,21.15
2019-04-11T01:05:45.626Z,22.00
2019-04-11T01:08:17.627Z,20.25
2019-04-11T01:10:49.651Z,20.08
2019-04-11T01:13:21.234Z,23.60
2019-04-11T01:15:54.748Z,29.00
2019-04-11T01:18:25.740Z,24.15
2019-04-11T01:20:56.834Z,26.30
2019-04-11T01:23:27.624Z,41.98
2019-04-11T01:25:59.036Z,39.20
2019-04-11T01:28:30.953Z,24.35
2019-04-11T01:31:03.097Z,22.98
2019-04-11T01:33:33.918Z,23.27
2019-04-11T01:36:06.941Z,23.10
2019-04-11T01:38:40.821Z,23.65
2019-04-11T01:41:12.128Z,23.00
2019-04-11T01:43:53.462Z,28.98
2019-04-11T01:46:16.099Z,28.75
2019-04-11T01:48:48.340Z,27.87
2019-04-11T01:51:19.249Z,25.68
2019-04-11T01:53:51.037Z,26.62
2019-04-11T01:56:21.837Z,27.05
2019-04-11T01:58:53.104Z,26.27
2019-04-11T02:01:25.151Z,27.35
2019-04-11T02:03:57.728Z,25.08
2019-04-11T02:06:28.526Z,23.62
2019-04-11T02:08:59.902Z,22.62
2019-04-11T02:11:31.738Z,23.22
2019-04-11T02:14:10.420Z,23.00
2019-04-11T02:16:36.844Z,24.10
2019-04-11T02:19:08.022Z,22.20
2019-04-11T02:21:40.052Z,23.32
2019-04-11T02:24:12.715Z,23.85
2019-04-11T02:26:46.845Z,24.25
2019-04-11T02:29:19.780Z,22.27
2019-04-11T02:31:50.751Z,22.37
2019-04-11T02:34:21.435Z,24.52
2019-04-11T02:36:53.538Z,22.95
2019-04-11T02:39:27.455Z,21.93
2019-04-11T02:41:58.969Z,21.20
2019-04-11T02:44:41.119Z,20.52
2019-04-11T02:47:08.419Z,21.20
2019-04-11T02:49:35.104Z,22.07
2019-04-11T02:52:07.175Z,20.65
2019-04-11T02:54:38.982Z,22.35
2019-04-11T02:57:09.968Z,22.80
2019-04-11T02:59:44.481Z,27.42
2019-04-11T03:02:16.757Z,22.17
2019-04-11T03:04:48.050Z,22.10
2019-04-11T03:07:17.414Z,22.15
2019-04-11T03:09:49.212Z,22.20
2019-04-11T03:12:21.550Z,21.37
2019-04-11T03:15:12.701Z,20.95
2019-04-11T03:17:30.834Z,21.10
2019-04-11T03:20:08.283Z,21.73
2019-04-11T03:22:29.876Z,22.10
2019-04-11T03:25:02.918Z,22.35
2019-04-11T03:27:34.754Z,22.55
2019-04-11T03:30:10.003Z,22.15
2019-04-11T03:33:25.441Z,21.45
2019-04-11T03:38:05.914Z,21.95
2019-04-11T03:40:30.470Z,22.40
2019-04-11T03:43:04.170Z,22.25
2019-04-11T03:45:40.138Z,23.15
2019-04-11T03:48:07.465Z,22.90
2019-04-11T03:50:27.978Z,23.42
2019-04-11T03:52:59.467Z,22.32
2019-04-11T03:55:32.441Z,22.98
2019-04-11T03:58:03.786Z,21.52
2019-04-11T04:00:38.283Z,23.05
2019-04-11T04:03:09.065Z,22.42
2019-04-11T04:05:41.493Z,21.95
2019-04-11T04:08:13.033Z,21.23
2019-04-11T04:10:45.370Z,21.60
2019-04-11T04:13:18.923Z,20.30
2019-04-11T04:16:00.117Z,19.73
2019-04-11T04:18:27.594Z,20.25
2019-04-11T04:21:01.695Z,20.45
2019-04-11T04:23:35.717Z,19.15
2019-04-11T04:26:09.566Z,19.42
2019-04-11T04:28:40.874Z,19.30
2019-04-11T04:31:12.141Z,20.05
2019-04-11T04:33:45.596Z,20.90
2019-04-11T04:36:18.235Z,18.50
2019-04-11T04:38:49.399Z,19.52
2019-04-11T04:41:30.993Z,19.60
2019-04-11T04:43:53.542Z,20.82
2019-04-11T04:46:39.579Z,18.60
2019-04-11T04:48:58.377Z,20.15
2019-04-11T04:51:29.415Z,18.80
2019-04-11T04:54:01.609Z,20.50
2019-04-11T04:56:34.306Z,19.17
2019-04-11T04:59:05.342Z,18.98
2019-04-11T05:01:37.352Z,19.42
2019-04-11T05:04:09.157Z,20.55
2019-04-11T05:06:41.209Z,19.87
2019-04-11T05:09:12.943Z,20.50
2019-04-11T05:11:44.604Z,19.55
2019-04-11T05:14:15.700Z,21.97
2019-04-11T05:16:46.684Z,20.48
2019-04-11T05:19:22.016Z,20.45
2019-04-11T05:21:52.117Z,20.35
2019-04-11T05:24:23.089Z,22.90
2019-04-11T05:26:53.892Z,21.77
2019-04-11T05:29:25.020Z,21.10
2019-04-11T05:31:56.664Z,21.95
2019-04-11T05:34:28.005Z,22.17
2019-04-11T05:36:58.844Z,21.40
2019-04-11T05:39:29.527Z,21.82
2019-04-11T05:42:00.232Z,21.00
2019-04-11T05:44:30.927Z,23.02
2019-04-11T05:47:03.488Z,20.70
2019-04-11T05:49:38.413Z,22.17
2019-04-11T05:52:08.482Z,21.15
2019-04-11T05:54:41.815Z,20.48
2019-04-11T05:57:13.264Z,21.77
2019-04-11T05:59:48.719Z,21.80
2019-04-11T06:02:17.312Z,21.12
2019-04-11T06:04:52.815Z,22.95
2019-04-11T06:07:23.151Z,21.40
2019-04-11T06:09:55.303Z,21.70
2019-04-11T06:12:27.930Z,20.02
2019-04-11T06:14:59.714Z,20.08
2019-04-11T06:17:30.473Z,34.35
2019-04-11T06:20:02.517Z,24.35
2019-04-11T06:22:33.938Z,21.00
2019-04-11T06:25:06.698Z,19.75
2019-04-11T06:27:41.184Z,21.52
2019-04-11T06:30:12.714Z,20.92
2019-04-11T06:32:45.846Z,20.82
2019-04-11T06:35:17.933Z,20.35
2019-04-11T06:37:50.148Z,21.02
2019-04-11T06:40:22.956Z,20.88
2019-04-11T06:42:55.942Z,20.20
2019-04-11T06:45:29.304Z,20.43
2019-04-11T06:48:01.808Z,21.57
2019-04-11T06:50:33.674Z,20.37
2019-04-11T06:53:04.548Z,19.20
2019-04-11T06:55:37.042Z,19.80
2019-04-11T06:58:09.354Z,19.98
2019-04-11T07:00:41.377Z,19.52
2019-04-11T07:03:22.329Z,19.20
2019-04-11T07:05:46.849Z,19.00
2019-04-11T07:08:18.760Z,20.17
2019-04-11T07:10:53.305Z,19.67
2019-04-11T07:13:25.133Z,17.20
2019-04-11T07:15:56.819Z,20.27
2019-04-11T07:18:29.079Z,20.15
2019-04-11T07:21:01.095Z,19.45
2019-04-11T07:23:33.403Z,19.62
2019-04-11T07:26:04.490Z,19.30
2019-04-11T07:28:37.305Z,19.20
2019-04-11T07:31:10.465Z,18.90
2019-04-11T07:33:43.413Z,20.68
2019-04-11T07:36:15.654Z,19.67
2019-04-11T07:38:50.579Z,19.85
2019-04-11T07:41:21.643Z,18.48
2019-04-11T07:43:52.974Z,18.42
2019-04-11T07:46:26.891Z,18.27
2019-04-11T07:48:57.812Z,18.98
2019-04-11T07:51:30.624Z,18.70
2019-04-11T07:54:00.794Z,20.25
2019-04-11T07:56:33.195Z,18.62
2019-04-11T07:59:05.151Z,18.60
2019-04-11T08:01:38.189Z,18.45
2019-04-11T08:04:10.572Z,17.50
2019-04-11T08:06:42.598Z,18.17
2019-04-11T08:09:15.316Z,17.55
2019-04-11T08:11:48.010Z,17.80
2019-04-11T08:14:20.237Z,17.20
2019-04-11T08:16:53.246Z,17.17
2019-04-11T08:19:26.841Z,18.75
2019-04-11T08:21:58.899Z,17.73
2019-04-11T08:24:30.663Z,17.48
2019-04-11T08:27:02.988Z,17.32
2019-04-11T08:29:34.495Z,17.50
2019-04-11T08:32:05.268Z,18.82
2019-04-11T08:34:37.595Z,18.15
2019-04-11T08:37:12.056Z,17.60
2019-04-11T08:39:43.023Z,18.55
2019-04-11T08:42:15.110Z,16.95
2019-04-11T08:44:45.937Z,17.05
2019-04-11T08:47:18.340Z,16.37
2019-04-11T08:49:50.180Z,15.98
2019-04-11T08:52:22.510Z,17.60
2019-04-11T08:54:55.671Z,16.80
2019-04-11T08:57:28.657Z,16.93
2019-04-11T09:00:02.114Z,16.50
2019-04-11T09:02:35.245Z,16.02
2019-04-11T09:05:13.652Z,14.75
2019-04-11T09:07:41.487Z,16.37
2019-04-11T09:10:13.783Z,16.50
2019-04-11T09:12:46.739Z,15.18
2019-04-11T09:15:19.147Z,16.15
2019-04-11T09:17:58.683Z,17.37
2019-04-11T09:20:24.903Z,17.67
2019-04-11T09:22:57.494Z,17.42
2019-04-11T09:25:30.499Z,15.30
2019-04-11T09:28:03.012Z,15.95
2019-04-11T09:30:34.846Z,16.05
2019-04-11T09:33:06.859Z,14.83
2019-04-11T09:35:39.499Z,15.20
2019-04-11T09:38:11.591Z,17.25
2019-04-11T09:40:43.748Z,16.23
2019-04-11T09:43:16.039Z,15.60
2019-04-11T09:45:48.735Z,16.37
2019-04-11T09:48:24.563Z,17.23
2019-04-11T09:50:56.680Z,15.18
2019-04-11T09:53:28.275Z,15.20
2019-04-11T09:56:00.203Z,14.50
2019-04-11T09:58:31.709Z,15.20
2019-04-11T10:01:02.226Z,15.18
2019-04-11T10:03:34.569Z,14.95
2019-04-11T10:06:07.245Z,15.50
2019-04-11T10:08:39.601Z,14.15
2019-04-11T10:11:11.595Z,15.28
2019-04-11T10:13:44.843Z,16.95
2019-04-11T10:16:17.958Z,15.68
2019-04-11T10:18:51.458Z,15.15
2019-04-11T10:21:24.655Z,15.58
2019-04-11T10:23:57.203Z,14.25
2019-04-11T10:26:29.134Z,15.08
2019-04-11T10:29:02.193Z,14.25
2019-04-11T10:31:34.678Z,14.47
2019-04-11T10:34:11.123Z,15.20
2019-04-11T10:36:45.268Z,15.63
2019-04-11T10:39:19.686Z,15.15
2019-04-11T10:41:51.985Z,14.87
2019-04-11T10:44:23.985Z,15.03
2019-04-11T10:46:57.740Z,14.45
2019-04-11T10:49:28.427Z,14.78
2019-04-11T10:52:04.381Z,15.68
2019-04-11T10:54:36.733Z,16.00
2019-04-11T10:57:08.951Z,14.53
2019-04-11T10:59:44.814Z,14.35
2019-04-11T11:02:17.568Z,15.90
2019-04-11T11:04:52.664Z,15.68
2019-04-11T11:07:24.668Z,15.90
2019-04-11T11:09:57.182Z,15.32
2019-04-11T11:12:29.612Z,15.68
2019-04-11T11:15:03.069Z,14.85
2019-04-11T11:17:54.539Z,15.88
2019-04-11T11:20:19.584Z,16.20
2019-04-11T11:22:44.413Z,16.40
2019-04-11T11:25:17.831Z,16.25
2019-04-11T11:27:50.274Z,16.52
2019-04-11T11:30:23.102Z,16.37
2019-04-11T11:32:54.475Z,24.15
2019-04-11T11:35:29.752Z,19.12
2019-04-11T11:37:59.853Z,17.35
2019-04-11T11:40:32.063Z,17.92
2019-04-11T11:43:04.044Z,20.25
2019-04-11T11:45:36.077Z,18.40
2019-04-11T11:48:13.672Z,19.85
2019-04-11T11:50:40.357Z,19.87
2019-04-11T11:53:13.337Z,18.00
2019-04-11T11:55:45.790Z,19.77
2019-04-11T11:58:21.614Z,19.85
2019-04-11T12:00:57.832Z,20.65
2019-04-11T12:03:31.104Z,23.07
2019-04-11T12:06:07.250Z,25.08
2019-04-11T12:08:39.255Z,23.22
2019-04-11T12:11:13.596Z,23.47
2019-04-11T12:13:45.472Z,20.12
2019-04-11T12:16:21.383Z,20.35
2019-04-11T12:18:54.962Z,19.57
2019-04-11T12:21:26.442Z,18.52
2019-04-11T12:24:03.442Z,24.87
2019-04-11T12:26:30.420Z,24.30
2019-04-11T12:29:01.702Z,26.17
2019-04-11T12:31:36.658Z,19.12
2019-04-11T12:34:10.160Z,20.20
2019-04-11T12:36:44.647Z,21.55
2019-04-11T12:39:20.169Z,21.37
2019-04-11T12:41:52.951Z,22.00
2019-04-11T12:44:26.724Z,23.05
2019-04-11T12:46:59.749Z,24.18
2019-04-11T12:49:31.538Z,26.23
2019-04-11T12:52:04.288Z,23.27
2019-04-11T12:54:36.099Z,22.35
2019-04-11T12:57:08.499Z,30.27
2019-04-11T12:59:42.956Z,23.60
2019-04-11T13:02:14.935Z,22.82
2019-04-11T13:04:46.268Z,21.27
2019-04-11T13:07:17.975Z,22.77
2019-04-11T13:09:50.127Z,22.93
2019-04-11T13:12:22.015Z,23.60
2019-04-11T13:14:54.031Z,23.25
2019-04-11T13:17:26.168Z,23.70
2019-04-11T13:20:04.507Z,24.18
2019-04-11T13:22:32.741Z,28.15
2019-04-11T13:25:04.757Z,29.55
2019-04-11T13:27:36.541Z,24.80
2019-04-11T13:30:09.927Z,32.63
2019-04-11T13:32:40.114Z,28.20
2019-04-11T13:35:13.350Z,32.17
2019-04-11T13:37:46.069Z,28.30
2019-04-11T13:40:17.902Z,28.73
2019-04-11T13:42:49.836Z,26.90
2019-04-11T13:45:20.734Z,29.02
2019-04-11T13:47:55.308Z,28.20
2019-04-11T13:50:26.154Z,28.50
2019-04-11T13:52:57.953Z,27.42
2019-04-11T13:55:28.630Z,29.40
2019-04-11T13:58:00.380Z,28.85
2019-04-11T14:00:32.204Z,28.80
2019-04-11T14:03:04.134Z,26.87
2019-04-11T14:05:35.947Z,25.95
2019-04-11T14:08:06.633Z,29.50
2019-04-11T14:10:37.375Z,27.98
2019-04-11T14:13:09.315Z,28.17
2019-04-11T14:15:41.826Z,28.67
2019-04-11T14:18:15.357Z,32.17
2019-04-11T14:20:47.478Z,29.02
2019-04-11T14:23:19.292Z,30.20
2019-04-11T14:25:53.818Z,27.62
2019-04-11T14:28:26.237Z,25.10
2019-04-11T14:31:00.167Z,24.67
2019-04-11T14:33:32.516Z,24.43
2019-04-11T14:36:04.227Z,24.15
2019-04-11T14:38:45.542Z,24.35
2019-04-11T14:41:09.871Z,25.30
2019-04-11T14:43:43.758Z,23.07
2019-04-11T14:46:16.311Z,22.85
2019-04-11T14:48:48.862Z,23.15
2019-04-11T14:51:19.421Z,21.85
2019-04-11T14:53:51.435Z,22.70
2019-04-11T14:56:23.380Z,22.82
2019-04-11T14:58:55.271Z,21.90
2019-04-11T15:01:28.179Z,21.35
2019-04-11T15:04:00.057Z,20.97
2019-04-11T15:06:32.022Z,21.40
2019-04-11T15:09:04.203Z,19.85
2019-04-11T15:11:36.274Z,20.77
2019-04-11T15:14:08.155Z,19.30
2019-04-11T15:16:41.569Z,19.32
2019-04-11T15:19:13.046Z,18.98
2019-04-11T15:21:44.999Z,18.25
2019-04-11T15:24:16.187Z,18.05
2019-04-11T15:26:48.191Z,17.52
2019-04-11T15:29:20.197Z,18.05
2019-04-11T15:31:52.193Z,16.90
2019-04-11T15:34:29.441Z,17.00
2019-04-11T15:37:01.498Z,16.50
2019-04-11T15:39:44.384Z,16.82
2019-04-11T15:42:10.164Z,16.23
2019-04-11T15:44:44.552Z,15.72
2019-04-11T15:47:18.797Z,16.52
2019-04-11T15:49:49.077Z,16.35
2019-04-11T15:52:20.514Z,15.43
2019-04-11T15:54:52.465Z,15.58
2019-04-11T15:57:26.813Z,15.95
2019-04-11T15:59:58.029Z,16.30
2019-04-11T16:02:30.000Z,15.23
2019-04-11T16:05:01.926Z,16.17
2019-04-11T16:07:37.405Z,17.07
2019-04-11T16:10:11.738Z,16.42
2019-04-11T16:12:47.320Z,16.85
2019-04-11T16:15:19.335Z,15.40
2019-04-11T16:17:53.123Z,16.75
2019-04-11T16:20:23.856Z,16.42
2019-04-11T16:25:51.184Z,17.17
2019-04-11T16:28:23.587Z,15.63
2019-04-11T16:30:55.651Z,17.12
2019-04-11T16:33:27.727Z,16.35
2019-04-11T16:36:08.853Z,16.27
2019-04-11T16:38:41.035Z,17.07
2019-04-11T16:41:16.882Z,16.25
2019-04-11T16:43:49.222Z,17.35
2019-04-11T16:46:24.631Z,17.10
2019-04-11T16:48:55.912Z,17.70
2019-04-11T16:51:44.931Z,17.48
2019-04-11T16:54:15.524Z,18.27
2019-04-11T16:56:46.434Z,18.02
2019-04-11T16:59:17.783Z,18.15
2019-04-11T17:01:53.371Z,17.37
2019-04-11T17:04:26.012Z,17.73
2019-04-11T17:06:55.559Z,17.98
2019-04-11T17:09:28.080Z,17.77
2019-04-11T17:11:58.937Z,18.65
2019-04-11T17:14:33.105Z,17.45
2019-04-11T17:17:14.150Z,17.02
2019-04-11T17:19:36.938Z,17.40
2019-04-11T17:22:16.748Z,17.75
2019-04-11T17:24:48.021Z,17.50
2019-04-11T17:27:20.946Z,17.75
2019-04-11T17:29:54.602Z,17.75
2019-04-11T17:32:25.855Z,18.70
2019-04-11T17:34:56.106Z,17.15
2019-04-11T17:37:26.772Z,18.15
2019-04-11T17:40:06.574Z,18.02
2019-04-11T17:42:36.940Z,17.57
2019-04-11T17:45:08.425Z,17.60
2019-04-11T17:47:39.416Z,18.52
2019-04-11T17:50:10.209Z,18.45
2019-04-11T17:52:40.891Z,18.48
2019-04-11T17:55:11.662Z,17.98
2019-04-11T17:57:42.264Z,17.67
2019-04-11T18:00:14.483Z,18.10
2019-04-11T18:02:46.361Z,19.20
2019-04-11T18:05:17.696Z,18.75
2019-04-11T18:07:49.939Z,17.48
2019-04-11T18:10:20.497Z,19.20
2019-04-11T18:12:51.309Z,18.37
2019-04-11T18:15:22.039Z,17.42
2019-04-11T18:17:52.729Z,17.80
2019-04-11T18:20:23.627Z,17.70
2019-04-11T18:22:54.266Z,16.60
2019-04-11T18:25:25.238Z,16.32
2019-04-11T18:27:56.021Z,16.52
2019-04-11T18:30:27.327Z,15.88
2019-04-11T18:32:58.097Z,16.27
2019-04-11T18:35:31.751Z,15.93
2019-04-11T18:38:02.122Z,16.15
2019-04-11T18:40:32.746Z,16.35
2019-04-11T18:43:03.679Z,15.70
2019-04-11T18:45:34.494Z,15.08
2019-04-11T18:48:05.276Z,15.13
2019-04-11T18:50:35.947Z,14.90
2019-04-11T18:53:06.638Z,15.43
2019-04-11T18:55:37.536Z,15.70
2019-04-11T18:58:08.588Z,16.05
2019-04-11T19:00:40.224Z,17.05
2019-04-11T19:03:10.976Z,16.77
2019-04-11T19:05:42.985Z,15.60
2019-04-11T19:08:13.997Z,15.93
2019-04-11T19:10:45.798Z,15.83
2019-04-11T19:13:17.152Z,16.07
2019-04-11T19:15:48.328Z,17.45
2019-04-11T19:18:19.092Z,16.55
2019-04-11T19:20:50.303Z,16.02
2019-04-11T19:23:21.722Z,15.38
2019-04-11T19:25:52.705Z,16.55
2019-04-11T19:28:25.126Z,14.93
2019-04-11T19:30:56.793Z,15.10
2019-04-11T19:33:27.627Z,17.12
2019-04-11T19:35:58.429Z,15.83
2019-04-11T19:38:30.348Z,16.17
2019-04-11T19:41:01.109Z,16.70
2019-04-11T19:43:31.732Z,16.02
2019-04-11T19:46:02.669Z,16.90
2019-04-11T19:48:33.330Z,16.60
2019-04-11T19:51:04.118Z,17.17
2019-04-11T19:53:34.843Z,15.35
2019-04-11T19:56:07.072Z,16.30
2019-04-11T19:58:37.828Z,16.05
2019-04-11T20:01:08.510Z,16.10
2019-04-11T20:03:39.456Z,16.05
2019-04-11T20:06:10.086Z,16.20
2019-04-11T20:08:40.830Z,15.28
2019-04-11T20:11:11.863Z,16.00
2019-04-11T20:13:42.475Z,16.60
2019-04-11T20:16:13.530Z,16.00
2019-04-11T20:18:50.914Z,15.80
2019-04-11T20:21:17.156Z,15.83
2019-04-11T20:23:48.118Z,16.23
2019-04-11T20:26:20.947Z,15.58
2019-04-11T20:28:51.637Z,16.62
2019-04-11T20:31:22.555Z,16.50
2019-04-11T20:33:53.798Z,16.07
2019-04-11T20:36:33.167Z,15.50
2019-04-11T20:38:56.530Z,16.55
2019-04-11T20:41:27.298Z,17.85
2019-04-11T20:43:58.165Z,15.98
2019-04-11T20:49:18.472Z,16.02
2019-04-11T20:51:49.242Z,16.25
2019-04-11T20:54:20.142Z,17.23
2019-04-11T20:56:50.868Z,17.32
2019-04-11T20:59:21.695Z,17.57
2019-04-11T21:01:53.569Z,16.90
2019-04-11T21:04:24.422Z,15.38
2019-04-11T21:06:55.125Z,16.05
2019-04-11T21:09:25.810Z,15.78
2019-04-11T21:11:56.504Z,16.80
2019-04-11T21:14:27.224Z,16.73
2019-04-11T21:16:58.073Z,16.07
2019-04-11T21:19:28.788Z,16.77
2019-04-11T21:21:59.489Z,16.97
2019-04-11T21:24:30.942Z,16.45
2019-04-11T21:27:03.224Z,16.57
2019-04-11T21:29:33.902Z,16.32
2019-04-11T21:32:04.585Z,16.50
2019-04-11T21:34:35.280Z,16.25
2019-04-11T21:37:06.002Z,16.90
2019-04-11T21:39:36.691Z,17.10
2019-04-11T21:42:07.482Z,17.37
2019-04-11T21:44:38.332Z,17.00
2019-04-11T21:47:09.116Z,16.55
2019-04-11T21:49:40.168Z,17.37
2019-04-11T21:52:12.330Z,16.97
2019-04-11T21:54:45.136Z,17.48
2019-04-11T21:57:15.013Z,16.35
2019-04-11T21:59:45.790Z,16.17
2019-04-11T22:02:16.482Z,16.95
2019-04-11T22:04:47.239Z,17.00
2019-04-11T22:07:18.057Z,17.77
2019-04-11T22:09:48.975Z,18.27
2019-04-11T22:12:20.192Z,18.98
2019-04-11T22:14:50.935Z,19.52
2019-04-11T22:17:21.653Z,18.55
2019-04-11T22:19:52.370Z,18.37
2019-04-11T22:22:23.204Z,17.60
2019-04-11T22:24:54.155Z,18.07
2019-04-11T22:27:24.881Z,18.55
2019-04-11T22:29:55.838Z,19.62
2019-04-11T22:32:26.615Z,18.17
2019-04-11T22:34:59.215Z,18.32
2019-04-11T22:37:30.113Z,17.85
2019-04-11T22:40:02.060Z,17.75
2019-04-11T22:42:33.414Z,18.85
2019-04-11T22:45:05.901Z,18.25
2019-04-11T22:47:38.417Z,18.30
2019-04-11T22:50:10.078Z,18.42
2019-04-11T22:52:42.330Z,18.50
2019-04-11T22:55:13.709Z,17.17
2019-04-11T22:57:44.469Z,19.40
2019-04-11T23:00:15.836Z,20.48
2019-04-11T23:02:48.145Z,19.07
2019-04-11T23:05:18.947Z,20.12
2019-04-11T23:07:49.702Z,19.00
2019-04-11T23:10:20.418Z,20.55
2019-04-11T23:12:51.245Z,20.43
2019-04-11T23:15:21.955Z,20.52
2019-04-11T23:17:52.699Z,20.45
2019-04-11T23:20:27.971Z,20.45
2019-04-11T23:22:58.351Z,21.02
2019-04-11T23:25:29.155Z,20.90
2019-04-11T23:28:00.229Z,20.95
2019-04-11T23:30:31.266Z,21.30
2019-04-11T23:33:02.067Z,21.57
2019-04-11T23:35:32.816Z,21.65
2019-04-11T23:38:03.529Z,20.68
2019-04-11T23:40:40.633Z,20.20
2019-04-11T23:43:11.288Z,21.00
2019-04-11T23:45:42.052Z,20.25
2019-04-11T23:48:12.779Z,20.05
2019-04-11T23:50:43.622Z,20.27
2019-04-11T23:53:14.391Z,21.02
2019-04-11T23:55:45.359Z,20.92
2019-04-11T23:58:16.144Z,20.68
